Pittsburgh, Pennsylvania
Traffic Map
Current Weather Conditions
Pittsburgh, Pennsylvania
Clear
Clear
76°
Feels Like: 76°
Wind Chill: 76° Ceiling: Unl
Heat Index: 76° Visibility: 10mi
Dew Point: 63° Wind: 7mph
Humidity: 64% Direction: 200° (SSW)
Pressure: 30.13in Gusts: 0mph
Raw Report DataKAGC 250153Z 20006KT 10SM CLR 24/17 A3013 RMK AO2 SLP197 T02440172
Traffic Incident Summary
Active as of:
Severity:
Category:
InformationThere was an issue retrieving the traffic information for this location. Please try a different location or try again shortly.
Advertisements
Track Severe Weather on mobile